Time;durP1;ratioP1;P1;durP2;ratioP2;P2;SDS_P1;SDS_P2;PMS_P1;PMS_P2;Temp;Humidity;BMP_temperature;BMP_pressure;BME280_temperature;BME280_humidity;BME280_pressure;Samples;Min_cycle;Max_cycle;Signal;HPM_P1;HPM_P2
2021/12/30 00:01:54;;;;;;;29.67;12.13;;;11.50;99.90;;;;;;5094505;28;20069;-62
2021/12/30 00:04:22;;;;;;;38.40;14.38;;;11.50;99.90;;;;;;5060636;28;20027;-63
2021/12/30 00:06:47;;;;;;;35.33;14.60;;;11.50;99.90;;;;;;5094640;28;20076;-62
2021/12/30 00:09:19;;;;;;;29.90;11.27;;;11.50;99.90;;;;;;5094530;28;20028;-62
2021/12/30 00:11:46;;;;;;;35.72;12.02;;;11.50;99.90;;;;;;5094686;28;20031;-62
2021/12/30 00:14:11;;;;;;;27.90;11.38;;;11.50;99.90;;;;;;5076605;28;20035;-62
2021/12/30 00:16:37;;;;;;;31.45;11.52;;;11.50;99.90;;;;;;5094238;28;20027;-62
2021/12/30 00:19:04;;;;;;;33.30;11.52;;;11.60;99.90;;;;;;5094544;28;20494;-62
2021/12/30 00:21:29;;;;;;;28.65;10.50;;;11.60;99.90;;;;;;5094429;28;20030;-62
2021/12/30 00:23:55;;;;;;;33.35;11.10;;;11.60;99.90;;;;;;5076151;28;20044;-63
2021/12/30 00:26:20;;;;;;;25.50;9.15;;;11.60;99.90;;;;;;5076308;28;20391;-62
2021/12/30 00:28:46;;;;;;;28.52;9.93;;;11.60;99.90;;;;;;5094375;28;20039;-62
2021/12/30 00:31:12;;;;;;;27.63;9.63;;;11.60;99.90;;;;;;5093832;28;20028;-63
2021/12/30 00:33:38;;;;;;;31.80;9.07;;;11.60;99.90;;;;;;5094550;28;20020;-63
2021/12/30 00:36:09;;;;;;;30.77;8.82;;;11.70;99.90;;;;;;5094221;28;20081;-62
2021/12/30 00:38:38;;;;;;;22.33;8.38;;;11.70;99.90;;;;;;5094218;28;20051;-62
2021/12/30 00:41:04;;;;;;;35.78;8.38;;;11.70;99.90;;;;;;5094201;28;20115;-62
2021/12/30 00:43:29;;;;;;;33.25;8.50;;;11.70;99.90;;;;;;5093854;28;20479;-62
2021/12/30 00:45:55;;;;;;;24.73;7.75;;;11.70;99.90;;;;;;5076056;28;20535;-62
2021/12/30 00:48:21;;;;;;;23.70;7.65;;;11.70;99.90;;;;;;5093727;28;20400;-62
2021/12/30 00:50:47;;;;;;;26.20;7.70;;;11.70;99.90;;;;;;5093964;28;20032;-62
2021/12/30 00:53:13;;;;;;;24.75;7.60;;;11.70;99.90;;;;;;5093795;28;20024;-62
2021/12/30 00:55:39;;;;;;;27.45;8.07;;;11.70;99.90;;;;;;5093778;28;20162;-62
2021/12/30 00:58:06;;;;;;;30.17;7.35;;;11.70;99.90;;;;;;5075478;28;20016;-62
2021/12/30 01:00:33;;;;;;;36.17;8.70;;;11.70;99.90;;;;;;5093634;28;20526;-62
2021/12/30 01:02:59;;;;;;;30.58;8.23;;;11.70;99.90;;;;;;5093530;28;20022;-62
2021/12/30 01:05:32;;;;;;;33.47;8.82;;;11.80;99.90;;;;;;5093672;28;20095;-63
2021/12/30 01:07:58;;;;;;;31.90;8.98;;;11.80;99.90;;;;;;5093631;28;20095;-63
2021/12/30 01:10:25;;;;;;;32.55;9.05;;;11.80;99.90;;;;;;5093389;28;20051;-62
2021/12/30 01:12:53;;;;;;;34.33;9.43;;;11.80;99.90;;;;;;5093343;28;20028;-63
2021/12/30 01:15:21;;;;;;;35.10;10.57;;;11.90;99.90;;;;;;5093397;28;20091;-63
2021/12/30 01:20:38;;;;;;;36.28;12.15;;;11.90;99.90;;;;;;5034541;28;20138;-63
2021/12/30 01:23:04;;;;;;;44.60;12.82;;;12.00;99.90;;;;;;5072872;28;20024;-63
2021/12/30 01:25:30;;;;;;;35.15;11.95;;;12.00;99.90;;;;;;5072736;28;20526;-62
2021/12/30 01:27:56;;;;;;;32.50;12.70;;;12.10;99.90;;;;;;5055271;28;20025;-63
2021/12/30 01:30:21;;;;;;;42.22;12.65;;;12.10;99.90;;;;;;5072789;28;20033;-63
2021/12/30 01:32:47;;;;;;;32.35;12.30;;;12.10;99.90;;;;;;5072672;28;20071;-62
2021/12/30 01:35:15;;;;;;;40.55;13.40;;;12.10;99.90;;;;;;5072783;28;20366;-63
2021/12/30 01:37:41;;;;;;;41.75;13.50;;;12.20;99.90;;;;;;5072652;28;20024;-62
2021/12/30 01:40:12;;;;;;;36.90;14.00;;;12.20;99.90;;;;;;5072658;28;20013;-62
2021/12/30 01:42:38;;;;;;;38.97;14.93;;;12.20;99.90;;;;;;5071488;28;20107;-63
2021/12/30 01:45:05;;;;;;;42.15;14.02;;;12.20;99.90;;;;;;5072677;28;20056;-63
2021/12/30 01:47:31;;;;;;;33.47;14.23;;;12.30;99.90;;;;;;5072541;28;20024;-63
2021/12/30 01:49:57;;;;;;;38.72;15.18;;;12.30;99.90;;;;;;5072367;28;20359;-62
2021/12/30 01:52:22;;;;;;;34.70;14.60;;;12.30;99.90;;;;;;5072185;28;20119;-63
2021/12/30 01:54:48;;;;;;;32.80;13.15;;;12.30;99.90;;;;;;5085140;28;20032;-62
2021/12/30 01:57:14;;;;;;;46.70;17.00;;;12.30;99.90;;;;;;5092667;28;20379;-62
2021/12/30 01:59:39;;;;;;;46.30;15.85;;;12.30;99.90;;;;;;5092538;28;20066;-63
2021/12/30 02:02:05;;;;;;;37.13;16.55;;;12.30;99.90;;;;;;5074524;28;20729;-62
2021/12/30 02:04:31;;;;;;;36.95;13.77;;;12.30;99.90;;;;;;5092329;28;20043;-62
2021/12/30 02:06:57;;;;;;;47.90;15.38;;;12.30;99.90;;;;;;5092412;28;20505;-62
2021/12/30 02:09:24;;;;;;;41.13;16.15;;;12.20;99.90;;;;;;5074533;28;20031;-62
2021/12/30 02:11:50;;;;;;;32.25;14.48;;;12.20;99.90;;;;;;5092385;28;20419;-62
2021/12/30 02:14:16;;;;;;;40.03;16.17;;;12.30;99.90;;;;;;5092320;28;20387;-63
2021/12/30 02:16:42;;;;;;;39.15;14.27;;;12.30;99.90;;;;;;5074178;28;20484;-63
2021/12/30 02:19:08;;;;;;;37.55;13.95;;;12.30;99.90;;;;;;5092195;28;20043;-63
2021/12/30 02:21:34;;;;;;;42.33;14.98;;;12.30;99.90;;;;;;5092083;28;20063;-62
2021/12/30 02:24:00;;;;;;;41.85;14.27;;;12.30;99.90;;;;;;5092028;28;20055;-63
2021/12/30 02:26:26;;;;;;;40.92;14.77;;;12.30;99.90;;;;;;5092195;28;20046;-63
2021/12/30 02:28:52;;;;;;;34.13;15.85;;;12.30;99.90;;;;;;5091661;28;20036;-62
2021/12/30 02:31:29;;;;;;;34.30;14.18;;;12.30;99.90;;;;;;5091640;28;20458;-62
2021/12/30 02:33:55;;;;;;;35.25;15.23;;;12.40;99.90;;;;;;5091894;28;20024;-62
2021/12/30 02:36:25;;;;;;;33.90;15.05;;;12.30;99.90;;;;;;5092083;28;20055;-63
2021/12/30 02:38:51;;;;;;;;;;;12.40;99.90;;;;;;5092572;28;20060;-62
2021/12/30 02:41:19;;;;;;;34.15;14.43;;;12.30;99.90;;;;;;5091887;28;19940;-63
2021/12/30 02:43:47;;;;;;;28.85;13.25;;;12.30;99.90;;;;;;5091938;28;20016;-63
2021/12/30 02:46:15;;;;;;;33.38;13.82;;;12.40;99.90;;;;;;5092003;28;20047;-63
2021/12/30 02:48:41;;;;;;;36.10;16.13;;;12.40;99.90;;;;;;5073967;28;20032;-63
2021/12/30 02:51:09;;;;;;;39.75;16.15;;;12.40;99.90;;;;;;5073553;28;20024;-63
2021/12/30 02:53:35;;;;;;;31.17;14.65;;;12.40;99.90;;;;;;5090855;28;20074;-62
2021/12/30 02:56:02;;;;;;;35.70;14.60;;;12.40;99.90;;;;;;5091366;28;20032;-63
2021/12/30 02:58:28;;;;;;;31.98;15.07;;;12.50;99.90;;;;;;5091019;28;20070;-62
2021/12/30 03:01:18;;;;;;;31.85;13.57;;;12.50;99.90;;;;;;5091502;28;20024;-62
2021/12/30 03:03:44;;;;;;;35.40;15.60;;;12.50;99.90;;;;;;5081877;28;20119;-63
2021/12/30 03:06:12;;;;;;;38.42;15.40;;;12.50;99.90;;;;;;5091678;28;20107;-63
2021/12/30 03:08:38;;;;;;;29.45;13.18;;;12.50;99.90;;;;;;5073710;28;20062;-62
2021/12/30 03:11:06;;;;;;;32.45;14.38;;;12.50;99.90;;;;;;5091714;28;20063;-63
2021/12/30 03:13:33;;;;;;;22.95;12.13;;;12.50;99.90;;;;;;5091519;28;20035;-63
2021/12/30 03:16:02;;;;;;;25.35;13.15;;;12.50;99.90;;;;;;5091690;28;20018;-63
2021/12/30 03:18:29;;;;;;;29.75;13.57;;;12.50;99.90;;;;;;5073497;28;20109;-63
2021/12/30 03:20:55;;;;;;;34.05;14.93;;;12.50;99.90;;;;;;5091760;28;20027;-63
2021/12/30 03:23:20;;;;;;;35.47;14.82;;;12.50;99.90;;;;;;5091350;28;20024;-62
2021/12/30 03:25:46;;;;;;;34.97;15.82;;;12.50;99.90;;;;;;5091610;28;20511;-63
2021/12/30 03:28:11;;;;;;;30.67;13.93;;;12.50;99.90;;;;;;5091427;28;20028;-63
2021/12/30 03:30:37;;;;;;;33.42;15.68;;;12.50;99.90;;;;;;5091440;28;20012;-63
2021/12/30 03:33:03;;;;;;;41.00;15.88;;;12.60;99.90;;;;;;5091543;28;20027;-63
2021/12/30 03:35:29;;;;;;;30.73;14.77;;;12.60;99.90;;;;;;5091365;28;20034;-63
2021/12/30 03:37:56;;;;;;;31.85;16.65;;;12.50;99.90;;;;;;5091559;28;20024;-63
2021/12/30 03:40:22;;;;;;;31.85;15.57;;;12.60;99.90;;;;;;5091626;28;20196;-62
2021/12/30 03:42:48;;;;;;;28.15;14.30;;;12.60;99.90;;;;;;5095118;28;20638;-63
2021/12/30 03:45:14;;;;;;;34.08;15.45;;;12.60;99.90;;;;;;5095074;28;20020;-63
2021/12/30 03:47:44;;;;;;;33.42;17.48;;;12.60;99.90;;;;;;5095217;28;20032;-63
2021/12/30 03:50:18;;;;;;;36.80;18.00;;;12.60;99.90;;;;;;5077554;28;20028;-62
2021/12/30 03:52:44;;;;;;;34.83;16.85;;;12.60;99.90;;;;;;5076768;28;20028;-62
2021/12/30 03:55:10;;;;;;;38.97;16.38;;;12.60;99.90;;;;;;5094728;28;20057;-63
2021/12/30 03:57:35;;;;;;;34.88;17.63;;;12.60;99.90;;;;;;5095051;28;20573;-63
2021/12/30 04:00:01;;;;;;;34.45;16.75;;;12.60;99.90;;;;;;5075449;28;20056;-63
2021/12/30 04:02:26;;;;;;;33.45;18.02;;;12.60;99.90;;;;;;5074635;28;20091;-62
2021/12/30 04:04:52;;;;;;;30.23;18.40;;;12.60;99.90;;;;;;5092482;28;20031;-62
2021/12/30 04:07:17;;;;;;;33.60;17.92;;;12.60;99.90;;;;;;5094674;28;20557;-63
2021/12/30 04:09:43;;;;;;;29.70;17.55;;;12.60;99.90;;;;;;5094620;28;20497;-63
2021/12/30 04:12:09;;;;;;;29.73;16.25;;;12.60;99.90;;;;;;5094638;28;20503;-62
2021/12/30 04:14:36;;;;;;;27.05;16.02;;;12.60;99.90;;;;;;5094587;28;20487;-63
2021/12/30 04:17:02;;;;;;;24.10;14.55;;;12.70;99.90;;;;;;5094593;28;20063;-63
2021/12/30 04:19:27;;;;;;;21.98;14.07;;;12.60;99.90;;;;;;5076396;28;20052;-62
2021/12/30 04:21:53;;;;;;;22.55;14.13;;;12.60;99.90;;;;;;5076279;28;20485;-63
2021/12/30 04:24:19;;;;;;;24.90;14.18;;;12.70;99.90;;;;;;5094097;28;20523;-62
2021/12/30 04:26:45;;;;;;;22.15;14.35;;;12.70;99.90;;;;;;5076291;28;20476;-63
2021/12/30 04:29:10;;;;;;;20.25;11.98;;;12.60;99.90;;;;;;5094411;28;20063;-63
2021/12/30 04:31:36;;;;;;;19.33;12.10;;;12.70;99.90;;;;;;5094158;28;20031;-63
2021/12/30 04:34:01;;;;;;;17.05;11.82;;;12.70;99.90;;;;;;5094182;28;20028;-62
2021/12/30 04:36:27;;;;;;;17.77;11.95;;;12.70;99.90;;;;;;5094110;28;20035;-63
2021/12/30 04:38:52;;;;;;;16.23;11.27;;;12.70;99.90;;;;;;5075911;28;20078;-62
2021/12/30 04:41:18;;;;;;;15.70;10.98;;;12.70;99.90;;;;;;5094075;28;20499;-63
2021/12/30 04:43:43;;;;;;;16.48;11.02;;;12.70;99.90;;;;;;5094012;28;20027;-63
2021/12/30 04:46:09;;;;;;;15.60;10.45;;;12.70;99.90;;;;;;5094164;28;20093;-63
2021/12/30 04:48:35;;;;;;;16.25;10.85;;;12.70;99.90;;;;;;5093966;28;20051;-63
2021/12/30 04:51:01;;;;;;;15.77;11.38;;;12.70;99.90;;;;;;5093848;28;20077;-63
2021/12/30 04:53:26;;;;;;;15.90;10.20;;;12.80;99.90;;;;;;5092583;28;20499;-62
2021/12/30 04:55:52;;;;;;;14.13;9.52;;;12.70;99.90;;;;;;5075707;28;20077;-63
2021/12/30 04:58:18;;;;;;;14.27;9.98;;;12.70;99.90;;;;;;5093852;28;20078;-63
2021/12/30 05:00:43;;;;;;;14.50;11.10;;;12.80;99.90;;;;;;5093611;28;20030;-63
2021/12/30 05:03:13;;;;;;;12.77;9.05;;;12.80;99.90;;;;;;5093718;28;20016;-63
2021/12/30 05:05:45;;;;;;;10.30;7.55;;;12.80;99.90;;;;;;5093642;28;20016;-62
2021/12/30 05:08:11;;;;;;;12.00;8.57;;;12.80;99.90;;;;;;5093363;28;20068;-62
2021/12/30 05:10:37;;;;;;;11.02;8.45;;;12.80;99.90;;;;;;5093543;28;20376;-63
2021/12/30 05:13:04;;;;;;;13.27;9.35;;;12.80;99.90;;;;;;5093577;28;20082;-63
2021/12/30 05:15:30;;;;;;;12.55;9.30;;;12.90;99.90;;;;;;5093451;28;20028;-62
2021/12/30 05:17:55;;;;;;;11.82;8.38;;;12.90;99.90;;;;;;5093398;28;20043;-63
2021/12/30 05:20:21;;;;;;;12.27;9.55;;;12.80;99.90;;;;;;5093400;28;20020;-63
2021/12/30 05:22:47;;;;;;;14.27;8.93;;;12.90;99.90;;;;;;5093067;28;20036;-63
2021/12/30 05:25:18;;;;;;;11.05;8.93;;;12.90;99.90;;;;;;5093008;28;20473;-63
2021/12/30 05:27:43;;;;;;;10.30;8.20;;;12.90;99.90;;;;;;5093530;28;20036;-62
2021/12/30 05:30:12;;;;;;;9.52;7.20;;;12.90;99.90;;;;;;5093272;28;20042;-62
2021/12/30 05:32:37;;;;;;;10.45;8.10;;;12.90;99.90;;;;;;5093272;28;20112;-62
2021/12/30 05:35:06;;;;;;;8.80;7.28;;;13.00;99.90;;;;;;5074879;28;20056;-63
2021/12/30 05:37:32;;;;;;;9.15;7.32;;;13.00;99.90;;;;;;5093043;28;20028;-62
2021/12/30 05:39:57;;;;;;;9.50;8.18;;;13.10;99.90;;;;;;5092918;28;20027;-63
2021/12/30 05:42:23;;;;;;;11.68;8.75;;;13.10;99.90;;;;;;5092922;28;20494;-63
2021/12/30 05:44:55;;;;;;;13.40;10.10;;;13.10;99.90;;;;;;5074757;28;20028;-63
2021/12/30 05:47:21;;;;;;;16.35;12.32;;;13.20;99.90;;;;;;5075023;28;20024;-63
2021/12/30 05:49:47;;;;;;;16.65;13.48;;;13.20;99.90;;;;;;5074472;28;20035;-62
2021/12/30 05:52:13;;;;;;;18.83;13.13;;;13.20;99.90;;;;;;5074579;28;20067;-62
2021/12/30 05:54:40;;;;;;;15.93;12.57;;;13.30;99.90;;;;;;5092506;28;20080;-63
2021/12/30 05:57:06;;;;;;;14.52;12.55;;;13.30;99.90;;;;;;5092659;28;20020;-63
2021/12/30 05:59:31;;;;;;;16.95;12.15;;;13.40;99.90;;;;;;5092687;28;20433;-63
2021/12/30 06:01:57;;;;;;;14.73;11.73;;;13.40;99.90;;;;;;5092487;28;20032;-63
2021/12/30 06:04:22;;;;;;;15.05;11.50;;;13.40;99.90;;;;;;5092261;28;20081;-63
2021/12/30 06:06:48;;;;;;;13.07;10.68;;;13.40;99.90;;;;;;5074426;28;20028;-63
2021/12/30 06:09:14;;;;;;;14.10;10.70;;;13.40;99.90;;;;;;5092444;28;20031;-63
2021/12/30 06:11:39;;;;;;;12.13;9.88;;;13.50;99.90;;;;;;5092664;28;20514;-63
2021/12/30 06:14:05;;;;;;;9.18;8.18;;;13.40;99.90;;;;;;5074319;28;20028;-63
2021/12/30 06:16:32;;;;;;;10.63;8.95;;;13.50;99.90;;;;;;5092181;28;20031;-62
2021/12/30 06:18:59;;;;;;;12.43;8.70;;;13.50;99.90;;;;;;5092283;28;20028;-63
2021/12/30 06:21:25;;;;;;;9.63;7.88;;;13.60;99.90;;;;;;5092272;28;20040;-63
2021/12/30 06:23:51;;;;;;;9.98;8.30;;;13.60;99.90;;;;;;5091931;28;20058;-63
2021/12/30 06:26:16;;;;;;;13.52;11.23;;;13.60;99.90;;;;;;5092175;28;20115;-63
2021/12/30 06:28:42;;;;;;;12.77;10.85;;;13.60;99.90;;;;;;5092248;28;20034;-63
2021/12/30 06:31:08;;;;;;;13.15;10.95;;;13.70;99.90;;;;;;5073714;28;20467;-63
2021/12/30 06:33:33;;;;;;;14.20;11.70;;;13.70;99.90;;;;;;5091622;28;20123;-63
2021/12/30 06:35:59;;;;;;;12.80;11.13;;;13.70;99.90;;;;;;5091524;28;20028;-63
2021/12/30 06:38:24;;;;;;;13.15;11.02;;;13.70;99.90;;;;;;5091964;28;20024;-62
2021/12/30 06:40:50;;;;;;;12.27;10.23;;;13.70;99.90;;;;;;5091978;28;20543;-62
2021/12/30 06:43:15;;;;;;;12.40;10.85;;;13.70;99.90;;;;;;5073978;28;20399;-63
2021/12/30 06:45:44;;;;;;;11.65;9.68;;;13.70;99.90;;;;;;5091984;28;20039;-63
2021/12/30 06:48:13;;;;;;;12.23;9.30;;;13.70;99.90;;;;;;5062841;28;20023;-63
2021/12/30 06:50:39;;;;;;;10.45;8.88;;;13.70;99.90;;;;;;5070859;28;20021;-63
2021/12/30 06:53:05;;;;;;;13.13;10.30;;;13.70;99.90;;;;;;5073575;28;20044;-63
2021/12/30 06:55:30;;;;;;;12.07;9.07;;;13.70;99.90;;;;;;5070508;28;20040;-63
2021/12/30 06:57:56;;;;;;;11.02;8.43;;;13.70;99.90;;;;;;5070634;28;20020;-63
2021/12/30 07:00:21;;;;;;;14.32;9.75;;;13.70;99.90;;;;;;5076186;28;20012;-63
2021/12/30 07:02:47;;;;;;;12.13;9.18;;;13.70;99.90;;;;;;5083321;28;20111;-63
2021/12/30 07:05:13;;;;;;;11.98;9.20;;;13.70;99.90;;;;;;5069676;28;20020;-63
2021/12/30 07:07:39;;;;;;;11.55;9.32;;;13.80;99.90;;;;;;5084553;28;20024;-63
2021/12/30 07:10:05;;;;;;;13.77;10.15;;;13.70;99.90;;;;;;5090351;28;20065;-63
2021/12/30 07:12:31;;;;;;;13.65;10.70;;;13.80;99.90;;;;;;5090108;28;20358;-63
2021/12/30 07:14:57;;;;;;;15.00;10.98;;;13.80;99.90;;;;;;5087420;28;20468;-63
2021/12/30 07:17:26;;;;;;;15.05;10.15;;;13.70;99.90;;;;;;5093790;28;20031;-63
2021/12/30 07:19:52;;;;;;;13.70;10.27;;;13.70;99.90;;;;;;5094472;28;20031;-63
2021/12/30 07:22:17;;;;;;;14.82;10.38;;;13.70;99.90;;;;;;5094128;28;20102;-63
2021/12/30 07:24:43;;;;;;;15.32;10.50;;;13.70;99.90;;;;;;5075814;28;20056;-63
2021/12/30 07:27:11;;;;;;;14.80;10.32;;;13.80;99.90;;;;;;5088629;28;20487;-63
2021/12/30 07:29:37;;;;;;;13.45;9.02;;;13.80;99.90;;;;;;5093963;28;20111;-63
2021/12/30 07:32:03;;;;;;;13.00;8.90;;;13.70;99.90;;;;;;5092954;28;20775;-63
2021/12/30 07:34:28;;;;;;;11.55;8.10;;;13.80;99.90;;;;;;5092555;28;20028;-63
2021/12/30 07:36:54;;;;;;;10.00;7.00;;;13.80;99.90;;;;;;5094035;28;20109;-63
2021/12/30 07:39:19;;;;;;;8.88;6.78;;;13.80;99.90;;;;;;5091182;28;20069;-63
2021/12/30 07:41:45;;;;;;;7.78;6.25;;;13.80;99.90;;;;;;5087043;28;20040;-63
2021/12/30 07:44:10;;;;;;;8.45;5.93;;;13.80;99.90;;;;;;5071641;28;20019;-63
2021/12/30 07:46:36;;;;;;;7.90;5.32;;;13.80;99.90;;;;;;5090824;28;20029;-63
2021/12/30 07:49:02;;;;;;;7.20;5.00;;;13.90;99.90;;;;;;5093907;28;20025;-63
2021/12/30 07:51:28;;;;;;;6.78;4.57;;;13.90;99.90;;;;;;5093564;28;20021;-63
2021/12/30 07:53:54;;;;;;;6.57;4.63;;;13.90;99.90;;;;;;5093502;28;20034;-63
2021/12/30 07:56:19;;;;;;;4.15;3.75;;;13.90;99.90;;;;;;5082419;28;20095;-63
2021/12/30 07:58:45;;;;;;;4.47;3.03;;;13.90;99.90;;;;;;5090858;28;20044;-63
2021/12/30 08:01:11;;;;;;;4.05;3.08;;;14.00;99.90;;;;;;5093477;28;20468;-63
2021/12/30 08:03:36;;;;;;;4.35;2.67;;;14.00;99.90;;;;;;5090493;28;20073;-63
2021/12/30 08:06:02;;;;;;;5.80;2.60;;;14.00;99.90;;;;;;5093452;28;20394;-63
2021/12/30 08:08:27;;;;;;;3.85;2.25;;;14.00;99.90;;;;;;5090529;28;20030;-63
2021/12/30 08:10:54;;;;;;;2.78;2.08;;;14.10;99.90;;;;;;5072695;28;20032;-63
2021/12/30 08:13:19;;;;;;;2.90;2.15;;;14.10;99.90;;;;;;5092905;28;20027;-63
2021/12/30 08:15:46;;;;;;;2.63;1.38;;;14.10;99.90;;;;;;5074857;28;20016;-63
2021/12/30 08:18:12;;;;;;;3.72;2.20;;;14.10;99.90;;;;;;5090513;28;20012;-63
2021/12/30 08:20:38;;;;;;;3.45;2.38;;;14.10;99.90;;;;;;5092624;28;20422;-63
2021/12/30 08:23:04;;;;;;;3.30;1.95;;;14.10;99.90;;;;;;5067300;28;20463;-63
2021/12/30 08:25:30;;;;;;;3.25;1.77;;;14.20;99.90;;;;;;5092750;28;20040;-63
2021/12/30 08:27:56;;;;;;;3.22;1.60;;;14.20;99.90;;;;;;5089753;28;20085;-63
2021/12/30 08:30:22;;;;;;;2.78;1.60;;;14.20;99.90;;;;;;5074711;28;20111;-63
2021/12/30 08:32:48;;;;;;;4.65;2.05;;;14.20;99.90;;;;;;5092835;28;20486;-63
2021/12/30 08:35:15;;;;;;;3.47;1.50;;;14.20;99.90;;;;;;5087450;28;20016;-63
2021/12/30 08:37:41;;;;;;;5.15;1.98;;;14.30;99.90;;;;;;5086692;28;20531;-63
2021/12/30 08:40:09;;;;;;;3.28;1.42;;;14.30;99.90;;;;;;5088605;28;20472;-63
2021/12/30 08:42:36;;;;;;;3.80;1.60;;;14.30;99.90;;;;;;5090107;28;20094;-63
2021/12/30 08:45:03;;;;;;;3.03;1.73;;;14.30;99.90;;;;;;5087217;28;20069;-63
2021/12/30 08:47:30;;;;;;;3.47;2.20;;;14.30;99.90;;;;;;5089378;28;20115;-63
2021/12/30 08:49:57;;;;;;;5.32;2.10;;;14.30;99.90;;;;;;5091411;28;20088;-63
2021/12/30 08:52:24;;;;;;;3.00;1.77;;;14.40;99.90;;;;;;5086185;28;20087;-64
2021/12/30 08:54:52;;;;;;;2.92;1.95;;;14.30;99.90;;;;;;5090664;28;20085;-63
2021/12/30 08:57:19;;;;;;;2.83;1.60;;;14.40;99.90;;;;;;5090826;28;20020;-63
2021/12/30 08:59:45;;;;;;;2.80;1.52;;;14.40;99.90;;;;;;5088840;28;20057;-63
2021/12/30 09:02:11;;;;;;;3.17;1.85;;;14.40;99.90;;;;;;5086500;28;20020;-63
2021/12/30 09:04:37;;;;;;;4.20;1.35;;;14.40;99.90;;;;;;5091915;28;20028;-63
2021/12/30 09:07:05;;;;;;;4.13;1.45;;;14.50;99.90;;;;;;5074780;28;20036;-63
2021/12/30 09:09:31;;;;;;;5.82;1.75;;;14.50;99.90;;;;;;5091817;28;20059;-63
2021/12/30 09:11:56;;;;;;;4.00;1.60;;;14.50;99.90;;;;;;5090869;28;20751;-63
2021/12/30 09:14:23;;;;;;;3.30;1.20;;;14.60;99.90;;;;;;5092933;28;20103;-64
2021/12/30 09:16:48;;;;;;;4.72;1.35;;;14.60;99.90;;;;;;5091494;28;20077;-64
2021/12/30 09:19:15;;;;;;;3.30;1.50;;;14.60;99.90;;;;;;5093180;28;20056;-63
2021/12/30 09:21:42;;;;;;;4.82;1.70;;;14.70;99.90;;;;;;5092770;28;20108;-63
2021/12/30 09:24:09;;;;;;;3.28;1.60;;;14.70;99.90;;;;;;5092654;28;20044;-63
2021/12/30 09:26:34;;;;;;;5.80;1.58;;;14.70;99.90;;;;;;5092776;28;20039;-63
2021/12/30 09:29:00;;;;;;;4.68;1.65;;;14.70;99.90;;;;;;5080541;28;20028;-63
2021/12/30 09:31:28;;;;;;;4.07;1.63;;;14.70;99.90;;;;;;5072318;28;20032;-63
2021/12/30 09:33:55;;;;;;;4.35;1.50;;;14.70;99.90;;;;;;5072392;28;20048;-63
2021/12/30 09:36:22;;;;;;;6.07;2.08;;;14.80;99.90;;;;;;5072405;28;20407;-63
2021/12/30 09:38:48;;;;;;;7.32;2.30;;;14.80;99.90;;;;;;5071648;28;20017;-63
2021/12/30 09:41:14;;;;;;;5.07;1.60;;;14.80;99.90;;;;;;5054428;28;20078;-64
2021/12/30 09:43:39;;;;;;;7.15;2.03;;;14.90;99.90;;;;;;5071902;28;20033;-64
2021/12/30 09:46:05;;;;;;;7.18;2.42;;;14.90;99.90;;;;;;5074387;28;20029;-64
2021/12/30 09:48:30;;;;;;;5.47;1.92;;;14.90;99.90;;;;;;5081190;28;20028;-64
2021/12/30 09:50:56;;;;;;;5.82;2.40;;;15.00;99.90;;;;;;5092199;28;20024;-64
2021/12/30 09:53:24;;;;;;;7.90;2.95;;;15.00;99.90;;;;;;5090659;28;20422;-64
2021/12/30 09:55:51;;;;;;;6.53;2.55;;;15.00;99.90;;;;;;5092057;28;20019;-64
2021/12/30 09:58:18;;;;;;;6.13;2.70;;;15.00;99.90;;;;;;5092109;28;20023;-64
2021/12/30 10:00:44;;;;;;;8.23;2.95;;;15.10;99.90;;;;;;5091980;28;20444;-64
2021/12/30 10:03:10;;;;;;;6.28;2.80;;;15.10;99.90;;;;;;5091328;28;20060;-64
2021/12/30 10:05:41;;;;;;;7.22;3.47;;;15.20;99.90;;;;;;5091706;28;20067;-64
2021/12/30 10:08:19;;;;;;;9.00;3.50;;;15.30;99.90;;;;;;5086687;28;20038;-64
2021/12/30 10:10:48;;;;;;;6.78;3.60;;;15.30;99.90;;;;;;5091831;28;20020;-64
2021/12/30 10:13:21;;;;;;;8.70;2.75;;;15.50;99.90;;;;;;5086687;28;20063;-64
2021/12/30 10:15:53;;;;;;;11.18;3.30;;;15.60;99.90;;;;;;5070467;28;20430;-64
2021/12/30 10:18:19;;;;;;;11.00;2.95;;;15.70;99.90;;;;;;5086993;28;20043;-64
2021/12/30 10:20:46;;;;;;;6.47;3.00;;;15.60;99.90;;;;;;5081222;28;20028;-63
2021/12/30 10:23:22;;;;;;;9.77;3.05;;;15.60;99.90;;;;;;5070102;28;20024;-64
2021/12/30 10:25:50;;;;;;;7.22;2.83;;;15.60;99.90;;;;;;5070073;28;20036;-64
2021/12/30 10:28:35;;;;;;;12.48;3.53;;;15.50;99.90;;;;;;5082853;28;20032;-63
2021/12/30 10:31:14;;;;;;;8.85;2.90;;;15.50;99.90;;;;;;5089417;28;20027;-64
2021/12/30 10:34:06;;;;;;;6.20;2.55;;;15.40;99.90;;;;;;5088168;28;20646;-64
2021/12/30 10:36:47;;;;;;;9.40;2.65;;;15.40;99.90;;;;;;5088708;28;20012;-64
2021/12/30 10:39:20;;;;;;;11.77;3.95;;;15.30;99.90;;;;;;5090394;28;20627;-64
2021/12/30 10:42:15;;;;;;;8.63;2.75;;;15.30;99.90;;;;;;5107293;28;20028;-64
2021/12/30 10:44:56;;;;;;;9.90;2.78;;;15.30;99.90;;;;;;5091833;28;20031;-64
2021/12/30 10:47:29;;;;;;;9.30;3.25;;;15.30;99.90;;;;;;5090273;28;20058;-64
2021/12/30 10:50:15;;;;;;;9.18;3.17;;;15.30;99.90;;;;;;5089286;28;20380;-64
2021/12/30 10:52:49;;;;;;;9.23;2.45;;;15.30;99.90;;;;;;5061333;28;20039;-64
2021/12/30 10:55:15;;;;;;;10.43;2.75;;;15.30;99.90;;;;;;5088929;28;20797;-64
2021/12/30 10:57:41;;;;;;;7.90;2.40;;;15.30;99.90;;;;;;5091454;28;20503;-64
2021/12/30 11:00:08;;;;;;;7.45;2.72;;;15.30;99.90;;;;;;5091219;28;20102;-64
2021/12/30 11:02:36;;;;;;;11.50;2.40;;;15.30;99.90;;;;;;5087538;28;20051;-64
2021/12/30 11:05:10;;;;;;;10.98;2.85;;;15.30;99.90;;;;;;5089857;28;20036;-64
2021/12/30 11:07:46;;;;;;;7.55;2.35;;;15.30;99.90;;;;;;5087432;28;20034;-63
2021/12/30 11:10:14;;;;;;;8.63;2.42;;;15.30;99.90;;;;;;5086148;28;20024;-64
2021/12/30 11:12:44;;;;;;;10.10;2.42;;;15.30;99.90;;;;;;5082515;28;20426;-64
2021/12/30 11:15:21;;;;;;;8.35;1.98;;;15.30;99.90;;;;;;5088311;28;20069;-63
2021/12/30 11:17:47;;;;;;;6.80;2.13;;;15.30;99.90;;;;;;5086077;28;20024;-64
2021/12/30 11:20:16;;;;;;;12.73;2.53;;;15.30;99.90;;;;;;5091054;28;20008;-64
2021/12/30 11:22:42;;;;;;;11.70;2.43;;;15.30;99.90;;;;;;5087760;28;20048;-64
2021/12/30 11:25:10;;;;;;;8.27;2.17;;;15.30;99.90;;;;;;5087381;28;20090;-64
2021/12/30 11:27:36;;;;;;;8.02;2.10;;;15.30;99.90;;;;;;5089298;28;20119;-64
2021/12/30 11:30:08;;;;;;;10.20;2.33;;;15.30;99.90;;;;;;5090291;28;20103;-64
2021/12/30 11:32:34;;;;;;;9.85;2.67;;;15.30;99.90;;;;;;5068258;28;20024;-64
2021/12/30 11:35:10;;;;;;;9.30;2.28;;;15.30;99.90;;;;;;5088413;28;20023;-64
2021/12/30 11:37:36;;;;;;;9.20;2.40;;;15.30;99.90;;;;;;5105948;28;20035;-64
2021/12/30 11:40:09;;;;;;;8.98;2.35;;;15.20;99.90;;;;;;5093426;28;20024;-64
2021/12/30 11:42:43;;;;;;;5.82;1.88;;;15.30;99.90;;;;;;5084209;28;20128;-64
2021/12/30 11:45:44;;;;;;;7.68;1.77;;;15.30;99.90;;;;;;5101716;28;20063;-64
2021/12/30 11:48:25;;;;;;;9.32;2.10;;;15.30;99.90;;;;;;5076422;28;20020;-64
2021/12/30 11:51:09;;;;;;;7.60;2.50;;;15.30;99.90;;;;;;5082265;28;20071;-64
2021/12/30 11:53:35;;;;;;;8.52;1.90;;;15.40;99.90;;;;;;5091081;28;20495;-64
2021/12/30 11:56:04;;;;;;;9.15;1.88;;;15.30;99.90;;;;;;5095408;28;20369;-64
2021/12/30 11:58:37;;;;;;;11.23;2.37;;;15.40;99.90;;;;;;5090557;28;20031;-64
2021/12/30 12:01:21;;;;;;;9.20;2.40;;;15.40;99.90;;;;;;5072286;28;20541;-64
2021/12/30 12:04:11;;;;;;;8.52;2.45;;;15.50;99.90;;;;;;5093704;28;20024;-64
2021/12/30 12:06:59;;;;;;;8.30;2.97;;;15.50;99.90;;;;;;5106118;28;20020;-64
2021/12/30 12:09:25;;;;;;;6.60;2.10;;;15.50;99.90;;;;;;5089594;28;20053;-64
2021/12/30 12:11:53;;;;;;;11.10;2.85;;;15.50;99.90;;;;;;5096632;28;20031;-64
2021/12/30 12:14:24;;;;;;;6.93;1.90;;;15.50;99.90;;;;;;5108047;28;20031;-64
2021/12/30 12:16:56;;;;;;;8.35;2.70;;;15.60;99.90;;;;;;5102419;28;20024;-64
2021/12/30 12:19:41;;;;;;;7.28;1.90;;;15.50;99.90;;;;;;5099140;28;20031;-64
2021/12/30 12:22:18;;;;;;;10.77;2.17;;;15.60;99.90;;;;;;5080153;28;20112;-64
2021/12/30 12:24:46;;;;;;;8.65;1.95;;;15.60;99.90;;;;;;5079806;28;20039;-64
2021/12/30 12:27:30;;;;;;;9.35;2.83;;;15.60;99.90;;;;;;5090655;28;20028;-64
2021/12/30 12:29:57;;;;;;;7.25;1.70;;;15.60;99.90;;;;;;5076498;28;20039;-64
2021/12/30 12:32:29;;;;;;;6.55;1.38;;;15.60;99.90;;;;;;5090382;28;20123;-64
2021/12/30 12:34:58;;;;;;;4.20;1.33;;;15.60;99.90;;;;;;5085373;28;20108;-64
2021/12/30 12:37:33;;;;;;;6.47;1.50;;;15.60;99.90;;;;;;5090942;28;20549;-64
2021/12/30 12:40:16;;;;;;;8.10;1.55;;;15.60;99.90;;;;;;5089607;28;20795;-64
2021/12/30 12:42:53;;;;;;;9.13;2.92;;;15.60;99.90;;;;;;5074772;28;20395;-64